Time;durP1;ratioP1;P1;durP2;ratioP2;P2;SDS_P1;SDS_P2;PMS_P1;PMS_P2;Temp;Humidity;BMP_temperature;BMP_pressure;BME280_temperature;BME280_humidity;BME280_pressure;Samples;Min_cycle;Max_cycle;Signal;HPM_P1;HPM_P2
2021/11/07 00:00:22;;;;;;;82.30;37.80;;;;;;;2.58;81.48;100708.70;1732750;82;21045;-88
2021/11/07 00:05:25;;;;;;;80.57;37.87;;;;;;;2.52;81.73;100698.48;1712478;82;21134;-88
2021/11/07 00:08:03;;;;;;;65.00;33.50;;;;;;;2.48;81.69;100695.58;1712081;82;21528;-88
2021/11/07 00:10:33;;;;;;;70.97;32.00;;;;;;;2.44;81.80;100693.53;1738563;82;21109;-88
2021/11/07 00:12:48;;;;;;;62.38;31.50;;;;;;;2.41;82.01;100687.58;1736594;82;20974;-87
2021/11/07 00:15:17;;;;;;;56.45;30.77;;;;;;;2.39;82.07;100687.61;1740798;82;21100;-88
2021/11/07 00:17:49;;;;;;;58.73;30.52;;;;;;;2.37;81.87;100684.65;1736079;82;21065;-88
2021/11/07 00:20:18;;;;;;;47.00;27.50;;;;;;;2.35;82.20;100677.75;1724264;82;21118;-88
2021/11/07 00:28:06;;;;;;;47.60;26.20;;;;;;;2.26;82.17;100665.48;1737709;82;21113;-88
2021/11/07 00:30:40;;;;;;;58.92;30.88;;;;;;;2.25;82.19;100662.03;1712313;83;21575;-88
2021/11/07 00:37:57;;;;;;;60.60;31.33;;;;;;;2.19;82.36;100652.27;1740276;82;21097;-88
2021/11/07 00:42:57;;;;;;;63.28;32.25;;;;;;;2.15;82.28;100642.41;1734041;82;21081;-88
2021/11/07 00:45:28;;;;;;;58.87;30.65;;;;;;;2.12;82.28;100635.99;1711972;82;21037;-88
2021/11/07 00:50:27;;;;;;;66.28;32.42;;;;;;;2.10;82.42;100640.39;1712557;83;21065;-88
2021/11/07 00:52:54;;;;;;;62.45;31.50;;;;;;;2.09;82.43;100638.69;1713287;82;21072;-88
2021/11/07 00:55:31;;;;;;;62.62;31.85;;;;;;;2.06;82.43;100638.34;1725444;82;21081;-88
2021/11/07 00:58:02;;;;;;;52.62;29.75;;;;;;;2.05;82.42;100638.41;1724501;82;21584;-88
2021/11/07 01:00:39;;;;;;;56.30;29.90;;;;;;;2.03;82.42;100638.89;1731543;82;21038;-88
2021/11/07 01:02:57;;;;;;;49.77;27.62;;;;;;;2.00;82.42;100629.87;1733680;82;21025;-88
2021/11/07 01:05:28;;;;;;;56.55;30.52;;;;;;;1.97;82.42;100624.31;1740605;82;21535;-88
2021/11/07 01:07:56;;;;;;;47.45;24.90;;;;;;;1.93;82.43;100621.41;1737720;82;20990;-89
2021/11/07 01:10:24;;;;;;;52.25;27.00;;;;;;;1.91;82.65;100626.26;1741947;82;20962;-88
2021/11/07 01:12:51;;;;;;;39.58;23.02;;;;;;;1.90;82.85;100628.47;1741745;82;21065;-88
2021/11/07 01:15:17;;;;;;;43.10;22.67;;;;;;;1.87;82.92;100625.51;1722019;82;21491;-89
2021/11/07 01:17:44;;;;;;;42.58;23.38;;;;;;;1.85;82.69;100617.77;1723014;82;21021;-90
2021/11/07 01:20:14;;;;;;;43.33;24.63;;;;;;;1.84;82.98;100603.48;1741419;82;21109;-89
2021/11/07 01:23:13;;;;;;;38.90;22.75;;;;;;;1.82;82.99;100600.10;1742167;82;21053;-89
2021/11/07 01:25:30;;;;;;;39.40;21.57;;;;;;;1.78;82.83;100594.60;1719641;82;21005;-87
2021/11/07 01:27:57;;;;;;;39.90;21.73;;;;;;;1.74;82.86;100591.67;1730901;82;21026;-87
2021/11/07 01:30:26;;;;;;;39.05;22.58;;;;;;;1.71;82.87;100593.95;1711672;84;21006;-88
2021/11/07 01:33:02;;;;;;;38.45;21.77;;;;;;;1.69;83.04;100587.09;1737466;82;21081;-88
2021/11/07 01:35:35;;;;;;;33.60;19.85;;;;;;;1.65;83.23;100585.03;1731382;82;21113;-88
2021/11/07 01:40:30;;;;;;;35.13;21.25;;;;;;;1.61;83.39;100576.91;1741125;82;20982;-88
2021/11/07 01:42:56;;;;;;;31.10;21.17;;;;;;;1.59;83.36;100569.62;1741233;82;21518;-89
2021/11/07 01:45:29;;;;;;;36.60;21.33;;;;;;;1.55;83.30;100561.52;1741711;82;21061;-88
2021/11/07 01:48:05;;;;;;;34.67;20.95;;;;;;;1.53;83.53;100565.91;1724328;82;21484;-88
2021/11/07 01:50:24;;;;;;;32.08;21.30;;;;;;;1.53;83.65;100569.80;1725208;82;21523;-88
2021/11/07 01:53:01;;;;;;;33.13;19.73;;;;;;;1.52;83.67;100561.61;1713834;82;21065;-88
2021/11/07 01:55:19;;;;;;;29.85;20.15;;;;;;;1.50;83.45;100562.94;1738725;82;21041;-87
2021/11/07 01:57:49;;;;;;;27.27;18.32;;;;;;;1.48;83.48;100556.95;1740113;82;21085;-87
2021/11/07 02:00:21;;;;;;;28.45;17.70;;;;;;;1.47;83.49;100556.53;1721894;82;21101;-87
2021/11/07 02:02:49;;;;;;;29.75;18.12;;;;;;;1.47;84.47;100536.19;1711774;82;21069;-87
2021/11/07 02:05:15;;;;;;;29.70;19.32;;;;;;;1.52;85.26;100527.80;1719877;82;21018;-87
2021/11/07 02:07:41;;;;;;;28.65;16.95;;;;;;;1.59;85.53;100517.59;1729749;82;21504;-87
2021/11/07 02:10:12;;;;;;;27.22;16.87;;;;;;;1.67;85.92;100520.78;1742038;82;21014;-87
2021/11/07 02:12:40;;;;;;;26.07;16.93;;;;;;;1.74;85.85;100504.52;1741336;82;21062;-87
2021/11/07 02:15:13;;;;;;;23.27;15.32;;;;;;;1.79;85.80;100495.66;1715485;82;21041;-87
2021/11/07 02:17:39;;;;;;;25.88;16.65;;;;;;;1.83;85.81;100491.20;1715759;82;21089;-87
2021/11/07 02:20:11;;;;;;;25.75;14.80;;;;;;;1.86;86.05;100484.14;1736766;82;20998;-87
2021/11/07 02:22:40;;;;;;;26.85;16.15;;;;;;;1.93;86.17;100482.63;1713264;82;21025;-87
2021/11/07 02:25:07;;;;;;;24.18;14.87;;;;;;;1.99;86.20;100474.62;1734435;82;21026;-87
2021/11/07 02:27:33;;;;;;;24.63;15.60;;;;;;;2.03;86.11;100460.58;1741544;82;21516;-88
2021/11/07 02:30:00;;;;;;;21.02;14.38;;;;;;;2.08;86.13;100461.28;1739623;82;20986;-88
2021/11/07 02:32:27;;;;;;;24.87;14.95;;;;;;;2.13;86.18;100459.81;1740606;82;21002;-87
2021/11/07 02:34:54;;;;;;;19.17;12.63;;;;;;;2.18;86.25;100454.84;1741663;82;20989;-88
2021/11/07 02:37:20;;;;;;;20.77;12.50;;;;;;;2.23;86.19;100443.80;1741536;82;21013;-88
2021/11/07 02:39:46;;;;;;;20.12;12.88;;;;;;;2.29;86.04;100449.23;1716491;82;21014;-87
2021/11/07 02:42:14;;;;;;;22.60;13.15;;;;;;;2.33;86.02;100454.27;1713347;82;21523;-88
2021/11/07 02:44:45;;;;;;;19.65;12.23;;;;;;;2.40;86.05;100446.23;1736949;82;21009;-88
2021/11/07 02:47:14;;;;;;;21.70;13.48;;;;;;;2.46;85.86;100435.59;1741656;82;21000;-88
2021/11/07 02:49:41;;;;;;;20.05;13.05;;;;;;;2.49;85.74;100428.51;1719560;82;21054;-88
2021/11/07 02:52:11;;;;;;;19.87;12.68;;;;;;;2.51;85.68;100420.20;1691347;84;21081;-88
2021/11/07 02:54:38;;;;;;;22.62;13.03;;;;;;;2.54;85.46;100425.29;1719082;82;21041;-88
2021/11/07 02:57:09;;;;;;;24.07;12.98;;;;;;;2.55;85.56;100417.86;1720892;82;21073;-88
2021/11/07 02:59:39;;;;;;;20.17;11.57;;;;;;;2.59;85.53;100417.29;1738934;82;21026;-88
2021/11/07 03:02:06;;;;;;;17.95;11.68;;;;;;;2.62;85.47;100413.72;1705394;83;21030;-88
2021/11/07 03:04:33;;;;;;;20.65;12.88;;;;;;;2.64;85.45;100416.67;1718163;82;21001;-87
2021/11/07 03:06:59;;;;;;;18.82;12.33;;;;;;;2.65;85.31;100417.52;1741042;82;21010;-87
2021/11/07 03:09:29;;;;;;;20.12;13.10;;;;;;;2.66;85.30;100405.72;1726161;82;20950;-88
2021/11/07 03:11:56;;;;;;;17.85;12.10;;;;;;;2.68;85.44;100399.16;1726766;82;21054;-88
2021/11/07 03:14:27;;;;;;;20.92;13.68;;;;;;;2.69;85.39;100403.00;1732510;82;21021;-88
2021/11/07 03:16:54;;;;;;;17.02;11.55;;;;;;;2.71;85.33;100409.47;1740208;82;21061;-88
2021/11/07 03:19:23;;;;;;;22.27;12.20;;;;;;;2.72;85.41;100408.09;1716423;82;20982;-87
2021/11/07 03:21:53;;;;;;;20.37;12.55;;;;;;;2.74;85.32;100398.93;1711542;84;21033;-88
2021/11/07 03:24:20;;;;;;;16.00;10.28;;;;;;;2.75;85.28;100387.13;1715723;82;20992;-88
2021/11/07 03:26:49;;;;;;;19.25;12.00;;;;;;;2.75;85.27;100386.28;1721085;82;20986;-87
2021/11/07 03:29:14;;;;;;;17.98;11.38;;;;;;;2.76;85.24;100387.97;1722825;82;21065;-88
2021/11/07 03:34:45;;;;;;;20.82;12.07;;;;;;;2.76;85.17;100384.94;1729105;82;21023;-88
2021/11/07 03:36:52;;;;;;;21.75;12.73;;;;;;;2.75;85.19;100358.92;1728290;82;20979;-88
2021/11/07 03:39:23;;;;;;;20.82;11.75;;;;;;;2.74;85.17;100352.02;1742380;82;21065;-88
2021/11/07 03:41:50;;;;;;;19.67;11.78;;;;;;;2.72;85.12;100355.97;1736887;82;21040;-88
2021/11/07 03:44:19;;;;;;;18.45;12.28;;;;;;;2.72;85.11;100356.44;1739132;82;20986;-88
2021/11/07 03:46:48;;;;;;;18.07;11.22;;;;;;;2.72;85.20;100355.13;1722694;82;20985;-88
2021/11/07 03:49:15;;;;;;;15.72;9.83;;;;;;;2.70;85.14;100353.03;1725575;82;20993;-88
2021/11/07 03:51:43;;;;;;;21.65;11.48;;;;;;;2.69;85.25;100356.09;1723733;82;20997;-88
2021/11/07 03:54:12;;;;;;;21.25;11.68;;;;;;;2.68;85.17;100358.77;1739971;82;21052;-88
2021/11/07 03:56:39;;;;;;;22.73;13.15;;;;;;;2.68;85.30;100357.02;1741000;82;21038;-88
2021/11/07 03:59:06;;;;;;;17.30;12.60;;;;;;;2.69;85.46;100353.48;1738761;82;20969;-88
2021/11/07 04:01:35;;;;;;;23.98;12.82;;;;;;;2.71;85.49;100347.77;1731162;82;21005;-88
2021/11/07 04:04:01;;;;;;;15.65;10.45;;;;;;;2.71;85.50;100346.47;1740866;82;20998;-89
2021/11/07 04:06:27;;;;;;;20.25;12.33;;;;;;;2.73;85.58;100336.84;1741223;82;21050;-88
2021/11/07 04:08:54;;;;;;;24.37;12.88;;;;;;;2.75;85.55;100333.70;1725943;82;20962;-88
2021/11/07 04:11:20;;;;;;;22.58;11.70;;;;;;;2.75;85.50;100324.58;1738622;82;21492;-89
2021/11/07 04:13:47;;;;;;;20.48;11.10;;;;;;;2.76;85.54;100318.91;1741943;82;21001;-89
2021/11/07 04:16:14;;;;;;;18.57;11.90;;;;;;;2.76;85.58;100304.16;1714090;82;21034;-88
2021/11/07 04:18:42;;;;;;;20.72;11.38;;;;;;;2.76;85.58;100299.38;1712476;82;21567;-87
2021/11/07 04:21:08;;;;;;;20.08;12.00;;;;;;;2.77;85.62;100295.88;1712049;82;21536;-88
2021/11/07 04:23:35;;;;;;;15.78;10.48;;;;;;;2.76;85.64;100297.64;1722633;82;20995;-88
2021/11/07 04:26:02;;;;;;;17.73;11.10;;;;;;;2.77;85.79;100298.48;1722688;82;20981;-88
2021/11/07 04:28:28;;;;;;;17.62;11.28;;;;;;;2.79;85.75;100292.73;1735913;82;21049;-89
2021/11/07 04:30:56;;;;;;;17.77;10.48;;;;;;;2.81;85.79;100288.31;1742335;82;20994;-88
2021/11/07 04:33:24;;;;;;;20.97;12.30;;;;;;;2.82;85.85;100279.58;1735536;82;21500;-89
2021/11/07 04:35:51;;;;;;;16.30;10.32;;;;;;;2.85;85.88;100281.22;1718025;82;21566;-89
2021/11/07 04:38:18;;;;;;;20.70;11.53;;;;;;;2.86;85.97;100282.91;1719622;82;21481;-89
2021/11/07 04:40:45;;;;;;;14.10;10.98;;;;;;;2.89;86.06;100274.95;1711908;84;21049;-89
2021/11/07 04:43:12;;;;;;;18.12;10.85;;;;;;;2.92;86.12;100271.77;1716278;82;21088;-88
2021/11/07 04:45:38;;;;;;;17.55;11.78;;;;;;;2.97;86.27;100259.40;1737494;82;21615;-88
2021/11/07 04:48:04;;;;;;;15.83;11.88;;;;;;;3.04;86.26;100256.08;1742218;82;21024;-89
2021/11/07 04:50:36;;;;;;;16.25;11.30;;;;;;;3.10;86.22;100254.52;1741893;82;20981;-88
2021/11/07 04:53:04;;;;;;;17.95;12.45;;;;;;;3.16;86.16;100259.90;1739139;82;21466;-89
2021/11/07 04:55:27;;;;;;;16.32;11.57;;;;;;;3.20;86.08;100262.79;1716840;82;21117;-89
2021/11/07 04:57:53;;;;;;;14.83;10.28;;;;;;;3.25;86.02;100258.20;1730241;82;21080;-88
2021/11/07 05:00:22;;;;;;;21.23;11.53;;;;;;;3.31;86.07;100259.70;1726227;82;21488;-90
2021/11/07 05:02:50;;;;;;;17.40;11.88;;;;;;;3.37;86.01;100252.92;1737210;82;21005;-88
2021/11/07 05:05:18;;;;;;;16.45;11.55;;;;;;;3.41;85.93;100256.63;1741062;82;21646;-89
2021/11/07 05:07:44;;;;;;;18.92;11.93;;;;;;;3.46;85.88;100253.83;1740079;82;21428;-88
2021/11/07 05:10:11;;;;;;;13.18;9.53;;;;;;;3.49;85.83;100245.41;1742179;82;21009;-88
2021/11/07 05:12:37;;;;;;;14.58;10.30;;;;;;;3.53;85.78;100237.83;1740200;82;22254;-89
2021/11/07 05:15:05;;;;;;;13.80;8.65;;;;;;;3.55;85.75;100233.83;1741165;82;20974;-89
2021/11/07 05:17:31;;;;;;;14.73;9.40;;;;;;;3.58;85.75;100237.60;1742018;82;20950;-89
2021/11/07 05:19:57;;;;;;;16.57;10.23;;;;;;;3.61;85.72;100245.30;1742209;82;21524;-89
2021/11/07 05:22:23;;;;;;;15.90;9.73;;;;;;;3.63;85.57;100235.65;1742040;82;21006;-88
2021/11/07 05:24:49;;;;;;;14.80;9.85;;;;;;;3.65;85.50;100223.82;1739601;82;20943;-89
2021/11/07 05:27:15;;;;;;;16.10;9.28;;;;;;;3.67;85.45;100218.08;1735627;82;20954;-88
2021/11/07 05:29:41;;;;;;;13.58;9.28;;;;;;;3.68;85.38;100210.63;1739965;82;20986;-88
2021/11/07 05:32:08;;;;;;;16.73;10.18;;;;;;;3.68;85.36;100199.73;1741596;82;20962;-88
2021/11/07 05:34:36;;;;;;;21.42;10.40;;;;;;;3.69;85.32;100194.92;1719333;82;21002;-88
2021/11/07 05:37:03;;;;;;;15.80;10.03;;;;;;;3.69;85.26;100180.56;1723621;82;21006;-89
2021/11/07 05:39:29;;;;;;;19.57;10.88;;;;;;;3.70;85.28;100186.63;1711780;82;21026;-88
2021/11/07 05:41:55;;;;;;;18.25;9.83;;;;;;;3.69;85.31;100185.79;1712666;82;20986;-88
2021/11/07 05:44:21;;;;;;;18.67;11.78;;;;;;;3.70;85.31;100177.03;1739154;82;21041;-89
2021/11/07 05:46:47;;;;;;;22.42;13.80;;;;;;;3.71;85.39;100163.52;1738455;82;21029;-89
2021/11/07 05:49:13;;;;;;;22.60;14.93;;;;;;;3.71;85.45;100153.92;1734070;82;20966;-89
2021/11/07 05:51:39;;;;;;;22.20;12.85;;;;;;;3.73;85.52;100152.56;1735222;82;21528;-88
2021/11/07 05:54:06;;;;;;;20.05;12.43;;;;;;;3.74;85.65;100157.69;1738346;82;20987;-90
2021/11/07 05:56:33;;;;;;;19.23;12.05;;;;;;;3.77;85.66;100163.23;1723127;82;20966;-88
2021/11/07 05:58:59;;;;;;;16.55;10.50;;;;;;;3.80;85.74;100157.03;1742210;82;21006;-88
2021/11/07 06:01:26;;;;;;;18.77;11.60;;;;;;;3.83;85.71;100147.75;1737595;82;21029;-88
2021/11/07 06:03:52;;;;;;;19.17;12.15;;;;;;;3.85;85.64;100148.50;1737751;82;20990;-91
2021/11/07 06:06:19;;;;;;;19.52;12.47;;;;;;;3.89;85.74;100163.13;1717411;82;21005;-89
2021/11/07 06:08:45;;;;;;;16.97;11.38;;;;;;;3.92;85.79;100174.27;1727505;82;21001;-88
2021/11/07 06:11:12;;;;;;;24.15;13.00;;;;;;;3.95;85.72;100165.45;1742039;82;21025;-88
2021/11/07 06:13:38;;;;;;;17.90;11.73;;;;;;;3.98;85.60;100138.73;1735297;82;21019;-88
2021/11/07 06:16:05;;;;;;;18.98;11.75;;;;;;;4.02;85.65;100142.04;1740287;82;21462;-88
2021/11/07 06:18:31;;;;;;;17.07;10.18;;;;;;;4.05;85.62;100131.45;1742162;82;21011;-89
2021/11/07 06:20:58;;;;;;;13.58;9.68;;;;;;;4.10;85.60;100129.44;1741672;82;21006;-89
2021/11/07 06:23:25;;;;;;;17.60;11.22;;;;;;;4.14;85.56;100128.36;1733100;82;21065;-87
2021/11/07 06:25:52;;;;;;;13.68;8.85;;;;;;;4.18;85.45;100122.55;1719690;82;21056;-88
2021/11/07 06:28:18;;;;;;;14.00;8.68;;;;;;;4.22;85.29;100125.39;1733792;82;20962;-89
2021/11/07 06:30:49;;;;;;;16.27;10.48;;;;;;;4.28;85.26;100129.45;1712050;82;21555;-90
2021/11/07 06:33:17;;;;;;;16.52;9.93;;;;;;;4.33;85.18;100137.91;1718974;82;21456;-87
2021/11/07 06:35:43;;;;;;;18.10;11.30;;;;;;;4.37;85.16;100130.30;1739772;81;21025;-88
2021/11/07 06:38:09;;;;;;;15.78;10.95;;;;;;;4.42;85.03;100133.54;1738121;82;21053;-91
2021/11/07 06:40:35;;;;;;;16.42;10.80;;;;;;;4.48;85.02;100127.17;1714915;82;21073;-89
2021/11/07 06:43:02;;;;;;;18.37;10.68;;;;;;;4.52;84.86;100137.38;1712015;82;21007;-90
2021/11/07 06:45:28;;;;;;;17.55;10.68;;;;;;;4.57;84.76;100127.52;1717633;82;20974;-89
2021/11/07 06:47:54;;;;;;;13.30;9.58;;;;;;;4.60;84.71;100123.45;1736894;82;20950;-89
2021/11/07 06:50:20;;;;;;;16.80;10.70;;;;;;;4.63;84.58;100116.76;1742190;82;21034;-90
2021/11/07 06:52:47;;;;;;;14.38;10.43;;;;;;;4.65;84.38;100114.92;1742186;82;20982;-88
2021/11/07 06:55:14;;;;;;;18.20;11.15;;;;;;;4.67;84.33;100111.78;1736733;82;21114;-89
2021/11/07 06:57:42;;;;;;;15.58;9.48;;;;;;;4.69;84.25;100118.22;1732490;82;21499;-89
2021/11/07 07:00:13;;;;;;;14.75;10.50;;;;;;;4.70;84.11;100118.16;1712836;82;21558;-89
2021/11/07 07:02:40;;;;;;;15.05;9.78;;;;;;;4.72;84.15;100124.59;1718026;82;21457;-89
2021/11/07 07:05:13;;;;;;;16.05;10.03;;;;;;;4.74;84.10;100131.91;1717424;82;21479;-89
2021/11/07 07:07:44;;;;;;;13.32;8.85;;;;;;;4.76;84.05;100118.75;1732611;82;21054;-90
2021/11/07 07:10:12;;;;;;;17.50;11.08;;;;;;;4.78;83.97;100120.83;1729409;82;21117;-89
2021/11/07 07:12:49;;;;;;;14.65;10.13;;;;;;;4.81;83.88;100119.38;1739532;82;20998;-89
2021/11/07 07:15:19;;;;;;;13.60;9.30;;;;;;;4.82;83.92;100117.12;1735018;82;21537;-89
2021/11/07 07:17:46;;;;;;;11.25;8.35;;;;;;;4.85;83.80;100120.42;1740666;82;21129;-89
2021/11/07 07:20:38;;;;;;;13.28;8.95;;;;;;;4.88;83.76;100116.34;1723435;82;21045;-90
2021/11/07 07:28:34;;;;;;;15.00;9.60;;;;;;;5.02;83.73;100109.08;1736924;82;21029;-89
2021/11/07 07:36:05;;;;;;;13.03;9.18;;;;;;;5.21;84.01;100079.33;1735337;82;21002;-89
2021/11/07 07:38:31;;;;;;;15.63;8.95;;;;;;;5.25;83.78;100069.06;1741884;82;21043;-88
2021/11/07 07:40:57;;;;;;;15.78;9.70;;;;;;;5.28;83.70;100044.05;1742296;82;21037;-89
2021/11/07 07:43:25;;;;;;;14.85;10.10;;;;;;;5.29;83.65;100055.72;1741912;82;21009;-90
2021/11/07 07:45:54;;;;;;;17.48;10.98;;;;;;;5.32;83.62;100049.48;1725531;82;21052;-89
2021/11/07 07:48:21;;;;;;;15.00;10.68;;;;;;;5.33;83.57;100040.26;1713547;82;21519;-88
2021/11/07 07:50:47;;;;;;;17.73;12.90;;;;;;;5.34;83.44;100030.16;1711962;84;21067;-88
2021/11/07 07:53:14;;;;;;;18.75;11.85;;;;;;;5.36;83.57;100019.16;1712290;82;21496;-89
2021/11/07 07:55:40;;;;;;;19.67;11.57;;;;;;;5.40;83.51;100013.29;1739050;82;21520;-88
2021/11/07 07:58:06;;;;;;;19.40;10.78;;;;;;;5.45;83.41;100007.78;1741920;82;21009;-90
2021/11/07 08:00:33;;;;;;;14.60;10.32;;;;;;;5.49;83.29;100008.81;1739674;82;21129;-89
2021/11/07 08:02:59;;;;;;;16.60;11.78;;;;;;;5.55;83.20;100001.93;1733204;82;21016;-91
2021/11/07 08:05:25;;;;;;;17.95;10.78;;;;;;;5.65;83.58;99999.16;1720274;82;20966;-90
2021/11/07 08:07:51;;;;;;;14.13;9.48;;;;;;;5.78;83.40;100003.70;1742339;82;20978;-92
2021/11/07 08:10:17;;;;;;;11.25;8.60;;;;;;;5.91;82.95;100005.98;1739948;82;21500;-89
2021/11/07 08:12:43;;;;;;;12.25;7.92;;;;;;;6.04;82.50;100002.22;1739356;82;20958;-90
2021/11/07 08:15:13;;;;;;;12.70;8.08;;;;;;;6.17;82.21;99999.25;1726644;82;21485;-89
2021/11/07 08:17:39;;;;;;;11.25;7.37;;;;;;;6.29;81.62;99997.21;1736620;82;20998;-90
2021/11/07 08:20:09;;;;;;;8.55;6.60;;;;;;;6.42;81.54;99990.77;1741297;82;21062;-91
2021/11/07 08:22:36;;;;;;;11.93;7.67;;;;;;;6.57;81.37;99992.44;1732312;82;20993;-90
2021/11/07 08:25:19;;;;;;;9.90;6.35;;;;;;;6.72;81.22;99988.52;1712054;82;21367;-88
2021/11/07 08:27:43;;;;;;;7.72;6.45;;;;;;;6.87;80.77;99976.20;1737068;82;21057;-89
2021/11/07 08:30:11;;;;;;;9.83;6.28;;;;;;;7.02;80.15;99969.53;1734737;82;21006;-91
2021/11/07 08:32:37;;;;;;;11.88;7.50;;;;;;;7.17;79.78;99959.85;1740636;82;21069;-88
2021/11/07 08:35:05;;;;;;;8.48;6.25;;;;;;;7.30;79.17;99970.37;1739448;82;21057;-90
2021/11/07 08:37:37;;;;;;;10.53;7.20;;;;;;;7.37;78.87;99974.31;1741590;82;21017;-90
2021/11/07 08:40:02;;;;;;;9.33;7.20;;;;;;;7.44;78.72;99978.22;1740503;82;21149;-90
2021/11/07 08:42:46;;;;;;;9.70;7.28;;;;;;;7.49;78.25;99975.28;1738537;82;21029;-90
2021/11/07 08:54:31;;;;;;;7.70;6.45;;;;;;;7.55;78.08;99976.67;1712702;82;21118;-89
2021/11/07 09:09:25;;;;;;;11.40;7.72;;;;;;;7.60;76.57;99956.19;1729694;81;21063;-88
2021/11/07 09:11:53;;;;;;;11.75;6.58;;;;;;;7.62;76.51;99955.15;1705419;82;21012;-88
2021/11/07 09:14:24;;;;;;;10.80;6.58;;;;;;;7.66;76.31;99949.22;1707213;82;21516;-87
2021/11/07 09:16:51;;;;;;;9.25;7.37;;;;;;;7.67;76.35;99949.61;1706315;84;21061;-88
2021/11/07 09:19:22;;;;;;;8.63;6.17;;;;;;;7.71;76.52;99953.23;1685935;84;21517;-88
2021/11/07 09:21:54;;;;;;;12.35;7.95;;;;;;;7.74;76.43;99941.69;1705653;84;21061;-87
2021/11/07 09:24:55;;;;;;;10.75;6.78;;;;;;;7.74;76.06;99931.19;1733866;82;21034;-87
2021/11/07 09:26:54;;;;;;;8.35;5.97;;;;;;;7.74;76.12;99924.14;1709158;83;21080;-86
2021/11/07 09:29:34;;;;;;;10.03;6.40;;;;;;;7.74;75.62;99925.93;1715069;82;21022;-86
2021/11/07 09:37:41;;;;;;;10.90;7.20;;;;;;;7.76;75.42;99918.77;1741747;82;21094;-88
2021/11/07 09:40:04;;;;;;;18.15;11.15;;;;;;;7.77;75.51;99914.38;1739583;82;21014;-87
2021/11/07 09:42:36;;;;;;;15.63;9.80;;;;;;;7.77;75.75;99919.16;1735998;82;21057;-85
2021/11/07 09:45:09;;;;;;;21.70;13.08;;;;;;;7.79;75.71;99915.10;1741019;82;21057;-84
2021/11/07 09:47:28;;;;;;;19.42;11.80;;;;;;;7.79;75.52;99904.12;1741547;82;21034;-87
2021/11/07 09:49:54;;;;;;;16.35;11.25;;;;;;;7.81;75.36;99898.78;1742063;82;21058;-86
2021/11/07 09:52:27;;;;;;;10.70;8.55;;;;;;;7.81;75.06;99906.18;1735123;82;21540;-82
2021/11/07 09:54:58;;;;;;;10.18;7.33;;;;;;;7.82;74.72;99897.83;1733590;82;21017;-85
2021/11/07 09:57:22;;;;;;;10.95;8.10;;;;;;;7.82;74.80;99902.59;1711855;82;21077;-86
2021/11/07 09:59:54;;;;;;;10.88;8.95;;;;;;;7.83;75.14;99900.81;1729657;82;21029;-86
2021/11/07 10:02:21;;;;;;;12.68;7.53;;;;;;;7.84;74.76;99907.29;1716175;83;21034;-87
2021/11/07 10:04:48;;;;;;;10.88;9.05;;;;;;;7.83;74.31;99895.11;1738323;82;21034;-85
2021/11/07 10:07:20;;;;;;;12.75;8.70;;;;;;;7.84;74.15;99906.45;1741332;82;21073;-84
2021/11/07 10:09:54;;;;;;;10.40;7.90;;;;;;;7.82;73.96;99903.08;1717085;82;21045;-85
2021/11/07 10:12:30;;;;;;;12.60;9.45;;;;;;;7.80;74.21;99897.08;1717721;81;21574;-87
2021/11/07 10:14:53;;;;;;;;;;;;;;;7.78;74.11;99895.05;1745739;81;21690;-88
2021/11/07 10:17:40;;;;;;;10.98;8.63;;;;;;;7.75;74.22;99882.95;1725230;82;20161;-86
2021/11/07 10:20:28;;;;;;;11.60;8.58;;;;;;;7.74;74.17;99868.15;1732027;82;21046;-86
2021/11/07 10:23:13;;;;;;;12.15;8.98;;;;;;;7.72;74.44;99862.98;1721366;82;21025;-84
2021/11/07 10:25:52;;;;;;;12.20;8.65;;;;;;;7.73;74.31;99869.07;1738586;81;21031;-86
2021/11/07 10:28:31;;;;;;;12.60;8.48;;;;;;;7.74;74.24;99868.98;1737394;82;21012;-85
2021/11/07 10:31:26;;;;;;;12.18;7.47;;;;;;;7.76;74.16;99870.18;1735071;81;21002;-84
2021/11/07 10:34:08;;;;;;;12.75;9.10;;;;;;;7.77;74.06;99861.38;1726435;82;21642;-87
2021/11/07 10:42:23;;;;;;;15.23;10.50;;;;;;;7.77;73.81;99847.41;1729197;81;21026;-85
2021/11/07 10:53:14;;;;;;;29.00;17.42;;;;;;;7.70;73.94;99857.46;1729135;81;21073;-83
2021/11/07 10:55:36;;;;;;;;;;;;;;;7.69;74.03;99853.16;1734394;81;21845;-84
2021/11/07 10:58:04;;;;;;;17.62;12.07;;;;;;;7.68;73.96;99841.82;1734140;81;20125;-85
2021/11/07 11:00:40;;;;;;;17.55;12.33;;;;;;;7.69;74.16;99847.44;1731502;81;21001;-86
2021/11/07 11:03:16;;;;;;;12.25;9.53;;;;;;;7.72;74.13;99840.66;1729110;81;21015;-86
2021/11/07 11:05:54;;;;;;;12.90;8.70;;;;;;;7.75;74.18;99836.98;1733668;81;21726;-86
2021/11/07 11:08:29;;;;;;;13.70;9.58;;;;;;;7.78;74.38;99835.47;1730875;81;21077;-86
2021/11/07 11:11:04;;;;;;;11.53;8.70;;;;;;;7.81;74.33;99839.20;1726044;81;21046;-86
2021/11/07 11:31:37;;;;;;;16.32;10.82;;;;;;;8.05;74.38;99822.67;1728433;81;20972;-86
2021/11/07 11:34:00;;;;;;;14.38;9.68;;;;;;;8.12;74.43;99826.55;1714634;81;21585;-85
2021/11/07 11:36:36;;;;;;;15.83;9.55;;;;;;;8.19;74.03;99806.77;1738176;81;21079;-85
2021/11/07 11:39:19;;;;;;;12.68;8.83;;;;;;;8.27;74.21;99810.19;1718179;81;21069;-85
2021/11/07 11:41:48;;;;;;;11.00;8.05;;;;;;;8.34;74.09;99807.48;1731186;81;21054;-85
2021/11/07 11:44:12;;;;;;;12.18;8.83;;;;;;;8.39;73.82;99802.74;1736574;81;21030;-84
2021/11/07 11:46:55;;;;;;;13.95;9.63;;;;;;;8.44;73.77;99794.90;1732059;82;21014;-84
2021/11/07 11:52:28;;;;;;;13.10;9.20;;;;;;;8.50;73.65;99794.11;1726841;81;21038;-86
2021/11/07 11:57:39;;;;;;;12.63;9.28;;;;;;;8.54;73.63;99794.24;1725613;81;21071;-85
2021/11/07 12:03:37;;;;;;;14.40;9.05;;;;;;;8.56;73.63;99783.14;1735554;81;21555;-84
2021/11/07 12:08:19;;;;;;;12.93;9.10;;;;;;;8.56;73.42;99764.73;1719407;81;20999;-86
2021/11/07 12:13:48;;;;;;;12.95;9.45;;;;;;;8.58;73.57;99763.65;1719642;81;21081;-84
2021/11/07 12:16:17;;;;;;;11.43;7.62;;;;;;;8.59;73.31;99757.46;1725488;81;21052;-84
2021/11/07 12:19:03;;;;;;;14.50;10.55;;;;;;;8.61;73.50;99757.34;1717283;81;21071;-84
2021/11/07 12:21:56;;;;;;;13.03;8.80;;;;;;;8.61;73.37;99756.02;1735221;81;21579;-83
2021/11/07 12:24:32;;;;;;;13.90;10.18;;;;;;;8.60;73.26;99758.30;1714998;81;21046;-84
2021/11/07 12:27:28;;;;;;;9.95;7.60;;;;;;;8.61;73.37;99752.91;1729136;81;21045;-84
2021/11/07 12:30:03;;;;;;;11.65;8.65;;;;;;;8.62;73.40;99755.06;1716851;81;21558;-85
2021/11/07 12:32:35;;;;;;;12.53;8.80;;;;;;;8.62;73.61;99754.61;1725324;82;21043;-84
2021/11/07 12:35:18;;;;;;;9.55;7.05;;;;;;;8.63;73.58;99747.07;1724142;82;21008;-86
2021/11/07 12:40:46;;;;;;;13.53;9.03;;;;;;;8.64;73.77;99738.22;1732108;81;21077;-86
2021/11/07 12:43:27;;;;;;;14.20;9.83;;;;;;;8.65;73.73;99735.97;1727136;81;21058;-88
2021/11/07 12:46:00;;;;;;;8.75;7.17;;;;;;;8.66;73.79;99727.60;1726641;82;22182;-85
2021/11/07 12:48:48;;;;;;;9.03;6.62;;;;;;;8.67;73.51;99720.06;1728289;81;21573;-86
2021/11/07 12:51:22;;;;;;;17.62;9.50;;;;;;;8.67;73.56;99717.44;1661094;85;21046;-86
2021/11/07 12:54:07;;;;;;;16.30;10.72;;;;;;;8.67;73.48;99718.27;1675842;85;21464;-85
2021/11/07 12:56:53;;;;;;;14.07;10.48;;;;;;;8.68;73.52;99724.36;1674076;85;21057;-85
2021/11/07 12:59:43;;;;;;;16.50;11.18;;;;;;;8.66;73.54;99720.55;1671913;85;21566;-85
2021/11/07 13:02:25;;;;;;;12.00;8.60;;;;;;;8.68;73.82;99725.67;1663230;85;21594;-85
2021/11/07 13:05:06;;;;;;;9.63;7.12;;;;;;;8.68;73.72;99719.94;1667415;85;21085;-86
2021/11/07 13:07:34;;;;;;;12.93;9.98;;;;;;;8.67;73.50;99723.53;1664288;85;22199;-84
2021/11/07 13:10:07;;;;;;;13.88;9.28;;;;;;;8.66;73.42;99719.72;1670395;85;21569;-85
2021/11/07 13:12:42;;;;;;;;;;;;;;;8.65;73.28;99727.22;1663034;85;22411;-85
2021/11/07 13:29:35;;;;;;;21.52;13.88;;;;;;;8.56;73.41;99723.98;1670119;85;21065;-84
2021/11/07 13:32:23;;;;;;;13.43;11.08;;;;;;;8.53;73.46;99724.20;1669581;85;21059;-85
2021/11/07 13:35:02;;;;;;;13.45;9.55;;;;;;;8.51;73.52;99731.35;1666405;85;21018;-85
2021/11/07 13:37:41;;;;;;;12.07;9.43;;;;;;;8.50;73.56;99732.31;1660446;85;21091;-85
2021/11/07 13:40:13;;;;;;;11.12;8.13;;;;;;;8.48;73.55;99734.20;1664495;85;21115;-85